createdAt,value
2018-09-10T00:01:52.927Z,96.60
2018-09-10T00:04:25.741Z,96.70
2018-09-10T00:06:58.655Z,96.70
2018-09-10T00:09:31.326Z,96.90
2018-09-10T00:12:04.142Z,96.80
2018-09-10T00:14:37.744Z,96.70
2018-09-10T00:17:10.687Z,96.70
2018-09-10T00:19:44.367Z,96.70
2018-09-10T00:22:17.565Z,96.70
2018-09-10T00:24:50.327Z,96.80
2018-09-10T00:27:23.353Z,96.90
2018-09-10T00:29:55.829Z,96.90
2018-09-10T00:32:28.414Z,96.90
2018-09-10T00:35:00.978Z,96.90
2018-09-10T00:37:34.416Z,97.00
2018-09-10T00:40:11.556Z,97.10
2018-09-10T00:42:45.520Z,97.10
2018-09-10T00:45:18.080Z,97.10
2018-09-10T00:47:50.967Z,97.10
2018-09-10T00:50:23.448Z,97.10
2018-09-10T00:52:56.959Z,97.10
2018-09-10T00:55:29.780Z,97.10
2018-09-10T00:58:02.348Z,97.10
2018-09-10T01:00:35.105Z,97.00
2018-09-10T01:03:08.273Z,97.10
2018-09-10T01:05:41.073Z,97.10
2018-09-10T01:08:13.935Z,97.10
2018-09-10T01:10:46.755Z,97.40
2018-09-10T01:15:52.287Z,99.90
2018-09-10T01:18:25.228Z,99.90
2018-09-10T01:20:58.037Z,99.80
2018-09-10T01:23:31.666Z,97.90
2018-09-10T01:26:04.448Z,97.90
2018-09-10T01:28:37.967Z,97.90
2018-09-10T01:31:10.656Z,98.00
2018-09-10T01:33:48.829Z,98.80
2018-09-10T01:36:22.339Z,98.30
2018-09-10T01:38:55.334Z,98.40
2018-09-10T01:41:28.094Z,98.50
2018-09-10T01:44:00.802Z,99.90
2018-09-10T01:46:33.713Z,99.90
2018-09-10T01:49:06.315Z,99.90
2018-09-10T01:51:38.755Z,99.90
2018-09-10T01:54:11.152Z,99.90
2018-09-10T01:56:43.581Z,99.90
2018-09-10T01:59:16.176Z,99.60
2018-09-10T02:01:49.216Z,99.10
2018-09-10T02:04:22.081Z,99.00
2018-09-10T02:06:54.658Z,98.80
2018-09-10T02:09:27.537Z,98.60
2018-09-10T02:12:00.278Z,98.20
2018-09-10T02:14:33.120Z,98.10
2018-09-10T02:17:05.890Z,98.00
2018-09-10T02:19:38.373Z,97.90
2018-09-10T02:22:11.097Z,97.80
2018-09-10T02:24:43.660Z,97.80
2018-09-10T02:27:16.127Z,97.80
2018-09-10T02:29:48.486Z,97.70
2018-09-10T02:32:20.853Z,97.70
2018-09-10T02:34:53.830Z,97.80
2018-09-10T02:37:26.297Z,97.70
2018-09-10T02:39:59.077Z,97.80
2018-09-10T02:42:31.511Z,97.80
2018-09-10T02:45:04.361Z,97.90
2018-09-10T02:47:37.105Z,97.90
2018-09-10T02:50:09.590Z,97.90
2018-09-10T02:52:42.511Z,97.90
2018-09-10T02:55:15.195Z,98.00
2018-09-10T02:57:48.098Z,98.00
2018-09-10T03:00:23.664Z,97.90
2018-09-10T03:02:56.660Z,98.00
2018-09-10T03:05:29.234Z,98.00
2018-09-10T03:08:02.017Z,97.90
2018-09-10T03:10:34.544Z,97.90
2018-09-10T03:13:07.090Z,97.90
2018-09-10T03:15:39.584Z,97.90
2018-09-10T03:18:12.175Z,98.00
2018-09-10T03:20:44.581Z,97.90
2018-09-10T03:23:17.123Z,98.00
2018-09-10T03:25:49.762Z,98.10
2018-09-10T03:28:22.300Z,98.10
2018-09-10T03:30:54.808Z,98.10
2018-09-10T03:33:27.409Z,98.20
2018-09-10T03:35:59.855Z,98.20
2018-09-10T03:38:32.459Z,98.10
2018-09-10T03:41:04.877Z,97.90
2018-09-10T03:43:37.273Z,97.90
2018-09-10T03:46:09.793Z,97.80
2018-09-10T03:48:42.371Z,97.70
2018-09-10T03:51:15.146Z,97.60
2018-09-10T03:53:47.613Z,97.60
2018-09-10T03:56:19.985Z,97.70
2018-09-10T03:58:52.423Z,97.80
2018-09-10T04:01:24.995Z,97.70
2018-09-10T04:03:57.524Z,97.70
2018-09-10T04:06:29.939Z,97.50
2018-09-10T04:09:02.465Z,97.40
2018-09-10T04:11:34.999Z,97.10
2018-09-10T04:14:07.481Z,96.60
2018-09-10T04:16:40.257Z,96.50
2018-09-10T04:19:13.053Z,96.60
2018-09-10T04:21:46.029Z,96.20
2018-09-10T04:24:18.982Z,96.00
2018-09-10T04:26:52.698Z,95.90
2018-09-10T04:29:25.199Z,95.90
2018-09-10T04:31:57.642Z,95.90
2018-09-10T04:34:30.187Z,95.70
2018-09-10T04:37:02.971Z,95.70
2018-09-10T04:39:35.543Z,95.70
2018-09-10T04:42:08.327Z,95.90
2018-09-10T04:44:40.841Z,95.90
2018-09-10T04:47:13.588Z,95.60
2018-09-10T04:49:46.190Z,95.20
2018-09-10T04:52:18.515Z,95.10
2018-09-10T04:54:51.138Z,95.20
2018-09-10T04:57:23.677Z,95.40
2018-09-10T04:59:56.443Z,95.20
2018-09-10T05:02:29.275Z,95.10
2018-09-10T05:05:01.790Z,95.30
2018-09-10T05:07:34.496Z,95.50
2018-09-10T05:10:07.352Z,95.40
2018-09-10T05:12:39.730Z,95.70
2018-09-10T05:15:12.340Z,95.60
2018-09-10T05:17:45.044Z,95.50
2018-09-10T05:20:17.872Z,95.70
2018-09-10T05:22:50.487Z,95.60
2018-09-10T05:25:23.122Z,95.90
2018-09-10T05:27:56.208Z,95.80
2018-09-10T05:30:28.703Z,96.10
2018-09-10T05:33:01.084Z,95.70
2018-09-10T05:35:33.776Z,95.70
2018-09-10T05:38:06.256Z,95.70
2018-09-10T05:40:38.839Z,95.70
2018-09-10T05:43:11.655Z,95.70
2018-09-10T05:45:44.642Z,95.30
2018-09-10T05:48:17.213Z,95.20
2018-09-10T05:50:49.846Z,95.10
2018-09-10T05:53:22.476Z,95.30
2018-09-10T05:55:55.487Z,94.80
2018-09-10T05:58:28.227Z,94.70
2018-09-10T06:01:00.785Z,94.80
2018-09-10T06:03:33.239Z,95.00
2018-09-10T06:06:05.789Z,94.40
2018-09-10T06:08:38.324Z,94.30
2018-09-10T06:11:11.011Z,94.00
2018-09-10T06:13:43.611Z,94.10
2018-09-10T06:16:16.159Z,93.70
2018-09-10T06:18:48.595Z,93.60
2018-09-10T06:21:21.355Z,93.50
2018-09-10T06:23:54.022Z,93.40
2018-09-10T06:26:27.374Z,92.90
2018-09-10T06:29:00.282Z,93.10
2018-09-10T06:31:32.964Z,93.20
2018-09-10T06:34:05.676Z,93.10
2018-09-10T06:36:38.677Z,93.00
2018-09-10T06:39:29.852Z,93.20
2018-09-10T06:42:02.306Z,92.80
2018-09-10T06:44:35.162Z,92.60
2018-09-10T06:47:08.219Z,92.70
2018-09-10T06:49:41.252Z,92.90
2018-09-10T06:52:14.272Z,92.70
2018-09-10T06:54:47.136Z,92.80
2018-09-10T06:57:19.682Z,92.30
2018-09-10T06:59:52.640Z,92.30
2018-09-10T07:02:25.328Z,92.30
2018-09-10T07:04:58.089Z,92.00
2018-09-10T07:07:31.318Z,92.00
2018-09-10T07:10:04.173Z,92.10
2018-09-10T07:12:36.947Z,92.00
2018-09-10T07:15:10.386Z,91.30
2018-09-10T07:17:43.794Z,91.40
2018-09-10T07:20:16.741Z,91.30
2018-09-10T07:22:49.258Z,92.50
2018-09-10T07:25:22.019Z,91.10
2018-09-10T07:27:54.725Z,90.80
2018-09-10T07:30:27.442Z,90.70
2018-09-10T07:33:00.531Z,90.50
2018-09-10T07:35:33.307Z,90.40
2018-09-10T07:38:05.923Z,90.30
2018-09-10T07:40:38.632Z,90.30
2018-09-10T07:43:11.191Z,90.50
2018-09-10T07:45:44.308Z,90.20
2018-09-10T07:48:16.843Z,90.30
2018-09-10T07:50:49.619Z,90.20
2018-09-10T07:53:22.314Z,90.30
2018-09-10T07:55:55.263Z,90.10
2018-09-10T07:58:28.393Z,88.90
2018-09-10T08:01:01.490Z,89.40
2018-09-10T08:06:12.943Z,88.00
2018-09-10T08:08:47.603Z,88.80
2018-09-10T08:11:21.331Z,87.70
2018-09-10T08:13:57.482Z,87.60
2018-09-10T08:19:04.059Z,87.30
2018-09-10T08:21:36.950Z,88.00
2018-09-10T08:24:09.763Z,87.70
2018-09-10T08:26:42.861Z,88.00
2018-09-10T08:29:17.143Z,86.80
2018-09-10T08:34:23.144Z,86.60
2018-09-10T08:36:58.025Z,86.90
2018-09-10T08:39:30.877Z,86.30
2018-09-10T08:42:04.663Z,86.00
2018-09-10T08:44:37.382Z,85.40
2018-09-10T08:47:11.030Z,85.60
2018-09-10T08:49:43.784Z,84.80
2018-09-10T08:52:17.104Z,84.90
2018-09-10T08:54:50.790Z,84.40
2018-09-10T08:57:23.354Z,84.20
2018-09-10T08:59:56.325Z,84.00
2018-09-10T09:02:29.210Z,84.40
2018-09-10T09:07:34.639Z,84.10
2018-09-10T09:10:07.368Z,84.60
2018-09-10T09:12:40.359Z,84.60
2018-09-10T09:15:13.105Z,94.40
2018-09-10T09:17:46.882Z,82.30
2018-09-10T09:20:19.479Z,82.00
2018-09-10T09:22:52.159Z,83.80
2018-09-10T09:27:57.810Z,81.50
2018-09-10T09:30:31.244Z,81.00
2018-09-10T09:35:44.219Z,79.70
2018-09-10T09:38:22.562Z,80.50
2018-09-10T09:43:34.445Z,80.80
2018-09-10T09:46:10.822Z,80.80
2018-09-10T09:48:43.431Z,79.80
2018-09-10T09:51:17.647Z,80.30
2018-09-10T09:53:50.158Z,81.00
2018-09-10T09:56:23.093Z,79.90
2018-09-10T09:58:55.862Z,79.90
2018-09-10T10:01:34.331Z,79.60
2018-09-10T10:04:08.054Z,79.80
2018-09-10T10:06:41.086Z,79.00
2018-09-10T10:09:13.911Z,78.90
2018-09-10T10:11:47.075Z,78.50
2018-09-10T10:14:21.150Z,79.00
2018-09-10T10:22:01.902Z,77.10
2018-09-10T10:24:35.285Z,78.40
2018-09-10T10:29:40.994Z,77.20
2018-09-10T10:32:13.878Z,77.20
2018-09-10T10:34:47.537Z,77.80
2018-09-10T10:37:20.262Z,77.80
2018-09-10T10:40:00.056Z,77.10
2018-09-10T10:42:35.734Z,77.20
2018-09-10T10:45:10.537Z,77.80
2018-09-10T10:47:43.787Z,77.80
2018-09-10T10:50:17.371Z,77.80
2018-09-10T10:52:50.069Z,77.80
2018-09-10T10:55:22.711Z,78.10
2018-09-10T10:57:55.322Z,77.40
2018-09-10T11:00:28.061Z,77.60
2018-09-10T11:03:00.943Z,77.30
2018-09-10T11:05:34.780Z,77.40
2018-09-10T11:10:40.113Z,76.40
2018-09-10T11:13:12.989Z,76.80
2018-09-10T11:15:45.597Z,77.40
2018-09-10T11:18:18.563Z,77.30
2018-09-10T11:20:51.203Z,77.00
2018-09-10T11:23:27.363Z,76.80
2018-09-10T11:25:59.789Z,76.90
2018-09-10T11:28:32.554Z,76.30
2018-09-10T11:31:05.090Z,76.50
2018-09-10T11:33:37.767Z,76.10
2018-09-10T11:36:10.797Z,75.30
2018-09-10T11:41:16.185Z,72.50
2018-09-10T11:43:50.895Z,73.40
2018-09-10T11:46:24.091Z,71.50
2018-09-10T11:48:57.335Z,71.80
2018-09-10T11:51:30.064Z,72.10
2018-09-10T11:54:03.163Z,72.10
2018-09-10T11:56:35.789Z,71.90
2018-09-10T11:59:08.333Z,71.80
2018-09-10T12:01:40.910Z,72.40
2018-09-10T12:04:14.759Z,70.60
2018-09-10T12:06:47.302Z,71.20
2018-09-10T12:09:19.903Z,70.50
2018-09-10T12:11:52.612Z,71.10
2018-09-10T12:14:25.378Z,71.60
2018-09-10T12:16:58.053Z,71.00
2018-09-10T12:19:30.811Z,70.80
2018-09-10T12:22:03.770Z,70.00
2018-09-10T12:24:36.672Z,68.30
2018-09-10T12:27:10.689Z,67.70
2018-09-10T12:29:43.406Z,67.80
2018-09-10T12:32:16.246Z,67.90
2018-09-10T12:34:48.729Z,68.00
2018-09-10T12:37:21.270Z,67.20
2018-09-10T12:39:54.920Z,66.80
2018-09-10T12:42:27.867Z,66.80
2018-09-10T12:45:00.895Z,66.40
2018-09-10T12:47:34.786Z,65.80
2018-09-10T12:50:07.563Z,66.00
2018-09-10T12:52:40.313Z,65.70
2018-09-10T12:55:14.081Z,65.60
2018-09-10T12:57:46.685Z,68.10
2018-09-10T13:00:19.528Z,67.40
2018-09-10T13:02:52.367Z,65.70
2018-09-10T13:05:25.353Z,66.20
2018-09-10T13:07:58.263Z,66.00
2018-09-10T13:10:31.016Z,65.60
2018-09-10T13:13:04.796Z,64.70
2018-09-10T13:15:38.437Z,65.60
2018-09-10T13:18:11.294Z,66.10
2018-09-10T13:20:44.537Z,65.30
2018-09-10T13:23:17.265Z,65.30
2018-09-10T13:25:53.060Z,65.50
2018-09-10T13:28:27.536Z,65.30
2018-09-10T13:31:00.106Z,65.50
2018-09-10T13:33:33.105Z,66.00
2018-09-10T13:36:06.169Z,66.20
2018-09-10T13:41:11.465Z,66.20
2018-09-10T13:43:44.077Z,67.20
2018-09-10T13:46:17.184Z,67.60
2018-09-10T13:48:51.231Z,67.80
2018-09-10T13:51:28.963Z,67.70
2018-09-10T13:54:04.366Z,68.00
2018-09-10T13:59:12.546Z,67.60
2018-09-10T14:01:47.769Z,68.40
2018-09-10T14:04:22.379Z,68.60
2018-09-10T14:06:58.347Z,68.60
2018-09-10T14:09:32.365Z,68.60
2018-09-10T14:12:06.135Z,68.70
2018-09-10T14:14:38.806Z,68.90
2018-09-10T14:17:12.067Z,68.50
2018-09-10T14:19:50.276Z,68.50
2018-09-10T14:22:22.952Z,68.50
2018-09-10T14:25:05.978Z,68.90
2018-09-10T14:27:39.376Z,69.40
2018-09-10T14:30:12.656Z,69.10
2018-09-10T14:32:51.040Z,69.30
2018-09-10T14:35:25.276Z,69.70
2018-09-10T14:37:58.276Z,70.30
2018-09-10T14:40:30.916Z,70.40
2018-09-10T14:43:04.007Z,71.10
2018-09-10T14:45:37.848Z,70.90
2018-09-10T14:48:10.704Z,71.00
2018-09-10T14:50:43.390Z,70.30
2018-09-10T14:53:16.239Z,70.50
2018-09-10T14:55:51.531Z,70.90
2018-09-10T14:58:24.380Z,70.80
2018-09-10T15:00:58.404Z,71.10
2018-09-10T15:03:31.260Z,71.00
2018-09-10T15:06:04.878Z,70.90
2018-09-10T15:08:38.796Z,71.10
2018-09-10T15:11:12.338Z,71.30
2018-09-10T15:13:45.602Z,71.50
2018-09-10T15:16:19.962Z,71.80
2018-09-10T15:18:53.424Z,71.90
2018-09-10T15:21:26.257Z,71.90
2018-09-10T15:23:59.584Z,72.30
2018-09-10T15:26:32.549Z,72.70
2018-09-10T15:29:06.327Z,73.00
2018-09-10T15:31:40.379Z,74.90
2018-09-10T15:34:16.511Z,75.40
2018-09-10T15:36:49.748Z,76.30
2018-09-10T15:39:23.676Z,75.10
2018-09-10T15:41:56.397Z,75.00
2018-09-10T15:44:30.231Z,75.10
2018-09-10T15:47:03.085Z,75.00
2018-09-10T15:49:38.110Z,75.40
2018-09-10T15:52:11.888Z,75.40
2018-09-10T15:54:45.994Z,75.50
2018-09-10T15:59:54.286Z,75.60
2018-09-10T16:02:27.835Z,76.90
2018-09-10T16:05:02.130Z,76.40
2018-09-10T16:07:34.716Z,76.40
2018-09-10T16:10:08.217Z,77.10
2018-09-10T16:12:41.821Z,77.80
2018-09-10T16:15:17.735Z,78.50
2018-09-10T16:17:50.387Z,79.20
2018-09-10T16:22:57.498Z,79.40
2018-09-10T16:25:30.597Z,80.60
2018-09-10T16:28:03.363Z,80.80
2018-09-10T16:30:36.123Z,81.00
2018-09-10T16:33:09.618Z,81.40
2018-09-10T16:35:42.225Z,81.70
2018-09-10T16:38:14.952Z,82.00
2018-09-10T16:40:48.643Z,82.30
2018-09-10T16:43:21.547Z,82.60
2018-09-10T16:45:54.843Z,82.60
2018-09-10T16:48:29.501Z,82.90
2018-09-10T16:51:02.843Z,83.10
2018-09-10T16:53:35.537Z,83.10
2018-09-10T16:56:08.175Z,83.50
2018-09-10T16:58:40.690Z,84.20
2018-09-10T17:01:13.146Z,84.40
2018-09-10T17:03:45.808Z,84.50
2018-09-10T17:06:18.440Z,84.50
2018-09-10T17:08:50.991Z,84.40
2018-09-10T17:13:56.821Z,83.30
2018-09-10T17:16:29.511Z,84.40
2018-09-10T17:19:02.435Z,83.70
2018-09-10T17:21:34.941Z,84.90
2018-09-10T17:24:08.523Z,84.30
2018-09-10T17:26:41.137Z,84.40
2018-09-10T17:29:15.081Z,84.60
2018-09-10T17:31:48.548Z,84.80
2018-09-10T17:34:21.111Z,84.70
2018-09-10T17:36:54.459Z,84.60
2018-09-10T17:39:27.069Z,84.50
2018-09-10T17:41:59.772Z,84.50
2018-09-10T17:44:33.939Z,84.60
2018-09-10T17:47:06.761Z,84.60
2018-09-10T17:49:39.465Z,93.00
2018-09-10T17:52:12.253Z,85.10
2018-09-10T17:57:18.137Z,84.90
2018-09-10T17:59:50.775Z,85.80
2018-09-10T18:02:23.383Z,85.90
2018-09-10T18:04:56.026Z,85.90
2018-09-10T18:07:28.930Z,86.00
2018-09-10T18:10:01.664Z,86.00
2018-09-10T18:12:34.501Z,86.10
2018-09-10T18:15:07.074Z,86.40
2018-09-10T18:17:39.829Z,86.50
2018-09-10T18:20:12.485Z,86.60
2018-09-10T18:22:45.236Z,86.40
2018-09-10T18:25:17.970Z,86.60
2018-09-10T18:27:50.878Z,86.60
2018-09-10T18:30:23.672Z,86.40
2018-09-10T18:32:56.516Z,86.50
2018-09-10T18:35:29.261Z,86.60
2018-09-10T18:38:01.934Z,86.70
2018-09-10T18:40:34.815Z,86.90
2018-09-10T18:43:07.673Z,86.70
2018-09-10T18:48:13.160Z,86.30
2018-09-10T18:50:45.776Z,87.00
2018-09-10T18:53:18.409Z,87.00
2018-09-10T18:55:50.946Z,87.20
2018-09-10T18:58:23.710Z,87.10
2018-09-10T19:00:57.631Z,87.40
2018-09-10T19:03:30.250Z,87.20
2018-09-10T19:06:02.967Z,87.40
2018-09-10T19:08:35.746Z,87.30
2018-09-10T19:11:08.364Z,87.70
2018-09-10T19:13:41.215Z,87.70
2018-09-10T19:16:14.007Z,87.70
2018-09-10T19:18:46.789Z,87.90
2018-09-10T19:21:19.641Z,88.00
2018-09-10T19:23:52.187Z,88.40
2018-09-10T19:26:24.854Z,88.60
2018-09-10T19:28:58.135Z,89.00
2018-09-10T19:31:30.575Z,88.90
2018-09-10T19:34:03.253Z,89.00
2018-09-10T19:36:35.988Z,89.20
2018-09-10T19:39:09.649Z,89.30
2018-09-10T19:41:42.377Z,89.20
2018-09-10T19:44:15.298Z,89.60
2018-09-10T19:46:48.082Z,89.70
2018-09-10T19:49:20.803Z,89.80
2018-09-10T19:51:53.444Z,90.00
2018-09-10T19:54:27.156Z,90.10
2018-09-10T19:57:00.624Z,90.40
2018-09-10T19:59:34.225Z,90.20
2018-09-10T20:02:07.522Z,90.30
2018-09-10T20:04:40.650Z,90.30
2018-09-10T20:07:14.082Z,90.30
2018-09-10T20:09:47.116Z,90.30
2018-09-10T20:12:20.413Z,90.40
2018-09-10T20:14:53.322Z,90.40
2018-09-10T20:17:27.188Z,90.50
2018-09-10T20:20:00.154Z,90.50
2018-09-10T20:22:34.027Z,90.80
2018-09-10T20:25:08.137Z,90.90
2018-09-10T20:27:40.934Z,90.90
2018-09-10T20:30:15.032Z,90.90
2018-09-10T20:32:47.874Z,90.90
2018-09-10T20:35:20.729Z,91.40
2018-09-10T20:37:53.624Z,91.70
2018-09-10T20:42:59.142Z,94.30
2018-09-10T20:45:32.059Z,91.60
2018-09-10T20:48:04.954Z,91.60
2018-09-10T20:50:38.080Z,91.30
2018-09-10T20:53:10.741Z,91.30
2018-09-10T20:55:43.858Z,91.40
2018-09-10T20:58:16.752Z,91.90
2018-09-10T21:00:49.493Z,92.10
2018-09-10T21:03:22.042Z,92.20
2018-09-10T21:05:54.827Z,92.30
2018-09-10T21:08:27.448Z,92.20
2018-09-10T21:11:00.072Z,92.00
2018-09-10T21:13:32.751Z,91.90
2018-09-10T21:16:05.851Z,92.30
2018-09-10T21:18:38.625Z,92.10
2018-09-10T21:21:11.010Z,92.00
2018-09-10T21:23:43.497Z,92.10
2018-09-10T21:26:16.992Z,92.10
2018-09-10T21:28:49.640Z,92.10
2018-09-10T21:31:22.045Z,92.10
2018-09-10T21:33:54.875Z,92.10
2018-09-10T21:36:27.743Z,92.20
2018-09-10T21:39:00.395Z,92.20
2018-09-10T21:41:34.237Z,92.30
2018-09-10T21:44:09.179Z,92.30
2018-09-10T21:49:14.420Z,99.90
2018-09-10T21:51:47.041Z,92.60
2018-09-10T21:54:22.653Z,92.60
2018-09-10T21:56:57.513Z,92.70
2018-09-10T21:59:30.286Z,92.80
2018-09-10T22:02:04.372Z,92.80
2018-09-10T22:04:37.571Z,93.30
2018-09-10T22:09:43.967Z,99.90
2018-09-10T22:12:16.797Z,99.90
2018-09-10T22:14:50.463Z,93.20
2018-09-10T22:17:23.622Z,96.20
2018-09-10T22:19:56.246Z,94.60
2018-09-10T22:22:28.889Z,93.30
2018-09-10T22:25:02.364Z,97.30
2018-09-10T22:30:08.214Z,95.20
2018-09-10T22:32:41.034Z,93.30
2018-09-10T22:35:13.840Z,93.30
2018-09-10T22:37:48.202Z,93.40
2018-09-10T22:40:20.855Z,93.50
2018-09-10T22:42:54.133Z,93.50
2018-09-10T22:45:27.471Z,93.60
2018-09-10T22:48:00.412Z,93.60
2018-09-10T22:53:06.223Z,93.30
2018-09-10T22:55:38.920Z,93.70
2018-09-10T22:58:11.704Z,93.70
2018-09-10T23:00:44.181Z,93.70
2018-09-10T23:05:49.072Z,99.90
2018-09-10T23:08:21.451Z,93.90
2018-09-10T23:10:59.430Z,93.80
2018-09-10T23:13:31.792Z,93.90
2018-09-10T23:16:05.046Z,94.00
2018-09-10T23:18:37.553Z,94.00
2018-09-10T23:21:10.156Z,94.00
2018-09-10T23:23:42.727Z,94.20
2018-09-10T23:26:15.194Z,94.30
2018-09-10T23:28:47.659Z,96.20
2018-09-10T23:31:20.122Z,95.90
2018-09-10T23:33:52.539Z,97.70
2018-09-10T23:36:24.912Z,98.40
2018-09-10T23:38:57.526Z,98.00
2018-09-10T23:41:29.927Z,99.10
2018-09-10T23:44:02.302Z,99.80
2018-09-10T23:46:34.714Z,99.90
2018-09-10T23:49:07.102Z,94.80
2018-09-10T23:51:39.523Z,94.80
2018-09-10T23:54:11.922Z,94.90
2018-09-10T23:56:44.636Z,95.00
2018-09-10T23:59:18.102Z,95.10
